CheckWX is a tool to help pilots better visualize weather data.  It is not intended as a substitute for an official pre-flight weather briefing.

03:18:38 UTC

ESUT METAR
Hemavan Airport
Sweden
Current

29 mins ago

ESUT 270250Z AUTO 00000KT 9999 SCT047/// M02/M03 Q0996
Observed
May-27 @ 02:50 UTC
Visibility
10,000+ meters
Flight Rules
VFR
Cloud Levels
  • Scattered at 4,700' AGL
Temperature
-2°C / 28°F
Dewpoint
-3°C / 27°F
Humidity
93%
Altimeter
29.41" Hg
Pressure
995.92 hPa
Previous

59 mins ago

ESUT 270220Z AUTO 00000KT 9999 NCD M02/M03 Q0996
Observed
May-27 @ 02:20 UTC
Visibility
10,000+ meters
Flight Rules
VFR
Cloud Levels
  • Clear skies
Temperature
-2°C / 28°F
Dewpoint
-3°C / 27°F
Humidity
93%
Altimeter
29.41" Hg
Pressure
995.92 hPa
Previous

1 hour ago

ESUT 270150Z AUTO VRB02KT 9999 FEW030/// SCT037/// 00/M03 Q0996
Observed
May-27 @ 01:50 UTC
Wind
  • Variable at 2 KTS
Visibility
10,000+ meters
Flight Rules
VFR
Cloud Levels
  • Few at 3,000' AGL
  • Scattered at 3,700' AGL
Temperature
C / 32°F
Dewpoint
-3°C / 27°F
Humidity
80%
Altimeter
29.41" Hg
Pressure
995.92 hPa